createdAt,value
2019-02-14T00:00:43.765Z,7.45
2019-02-14T00:03:12.208Z,7.17
2019-02-14T00:05:40.912Z,6.40
2019-02-14T00:08:09.204Z,6.75
2019-02-14T00:10:38.389Z,8.43
2019-02-14T00:13:07.028Z,6.75
2019-02-14T00:15:35.305Z,7.20
2019-02-14T00:18:03.574Z,6.87
2019-02-14T00:20:31.884Z,8.53
2019-02-14T00:23:00.468Z,7.40
2019-02-14T00:25:28.620Z,7.10
2019-02-14T00:27:56.639Z,7.20
2019-02-14T00:30:25.260Z,6.60
2019-02-14T00:32:53.910Z,6.97
2019-02-14T00:35:25.156Z,7.00
2019-02-14T00:37:54.430Z,6.42
2019-02-14T00:40:22.760Z,6.92
2019-02-14T00:42:50.921Z,7.42
2019-02-14T00:45:19.197Z,8.90
2019-02-14T00:47:49.310Z,6.83
2019-02-14T00:50:17.692Z,6.80
2019-02-14T00:52:46.123Z,6.55
2019-02-14T00:55:14.572Z,5.70
2019-02-14T00:57:42.733Z,5.83
2019-02-14T01:00:11.777Z,6.33
2019-02-14T01:02:40.678Z,6.67
2019-02-14T01:05:09.296Z,5.80
2019-02-14T01:07:38.305Z,5.92
2019-02-14T01:10:06.677Z,5.12
2019-02-14T01:12:35.041Z,6.50
2019-02-14T01:15:05.180Z,5.95
2019-02-14T01:17:32.398Z,5.08
2019-02-14T01:20:01.301Z,5.10
2019-02-14T01:22:29.810Z,4.83
2019-02-14T01:24:58.393Z,5.92
2019-02-14T01:27:26.562Z,4.40
2019-02-14T01:29:54.597Z,7.78
2019-02-14T01:32:23.709Z,5.65
2019-02-14T01:34:52.138Z,8.75
2019-02-14T01:37:20.339Z,5.42
2019-02-14T01:39:49.821Z,4.42
2019-02-14T01:42:18.461Z,6.00
2019-02-14T01:44:47.250Z,9.05
2019-02-14T01:47:15.693Z,5.12
2019-02-14T01:49:44.241Z,5.65
2019-02-14T01:52:12.545Z,6.33
2019-02-14T01:54:44.162Z,4.92
2019-02-14T01:57:12.438Z,5.42
2019-02-14T01:59:41.233Z,6.80
2019-02-14T02:02:09.856Z,5.03
2019-02-14T02:04:38.273Z,4.92
2019-02-14T02:07:06.725Z,4.78
2019-02-14T02:09:35.293Z,5.72
2019-02-14T02:12:03.565Z,5.33
2019-02-14T02:14:31.838Z,10.93
2019-02-14T02:17:00.061Z,8.28
2019-02-14T02:19:28.349Z,6.97
2019-02-14T02:21:57.145Z,8.93
2019-02-14T02:24:25.482Z,8.25
2019-02-14T02:26:54.044Z,5.42
2019-02-14T02:29:22.577Z,6.47
2019-02-14T02:31:51.369Z,6.55
2019-02-14T02:34:19.896Z,7.62
2019-02-14T02:36:48.282Z,6.30
2019-02-14T02:39:16.483Z,6.65
2019-02-14T02:41:45.073Z,6.60
2019-02-14T02:44:13.448Z,6.70
2019-02-14T02:46:42.459Z,5.25
2019-02-14T02:49:11.367Z,6.08
2019-02-14T02:51:39.293Z,5.28
2019-02-14T02:54:07.602Z,6.58
2019-02-14T02:56:36.014Z,6.03
2019-02-14T02:59:04.342Z,5.30
2019-02-14T03:01:32.814Z,5.70
2019-02-14T03:04:01.215Z,6.85
2019-02-14T03:06:29.382Z,6.25
2019-02-14T03:08:57.706Z,7.58
2019-02-14T03:11:26.181Z,5.30
2019-02-14T03:13:54.910Z,6.85
2019-02-14T03:16:23.299Z,7.62
2019-02-14T03:18:51.941Z,5.62
2019-02-14T03:21:20.389Z,5.42
2019-02-14T03:23:48.892Z,6.85
2019-02-14T03:26:17.756Z,6.00
2019-02-14T03:28:46.280Z,7.60
2019-02-14T03:31:14.446Z,5.15
2019-02-14T03:33:42.733Z,6.22
2019-02-14T03:36:18.625Z,9.40
2019-02-14T03:38:40.745Z,9.35
2019-02-14T03:41:08.781Z,9.68
2019-02-14T03:43:36.855Z,6.65
2019-02-14T03:46:05.153Z,9.03
2019-02-14T03:48:33.357Z,6.97
2019-02-14T03:51:01.754Z,6.20
2019-02-14T03:53:29.886Z,6.25
2019-02-14T03:55:58.026Z,8.45
2019-02-14T03:58:26.397Z,6.37
2019-02-14T04:00:54.507Z,6.33
2019-02-14T04:03:22.558Z,7.95
2019-02-14T04:05:50.721Z,6.65
2019-02-14T04:08:18.625Z,7.58
2019-02-14T04:10:46.655Z,7.15
2019-02-14T04:13:14.673Z,8.00
2019-02-14T04:15:42.627Z,8.35
2019-02-14T04:18:10.669Z,6.40
2019-02-14T04:20:39.022Z,6.45
2019-02-14T04:23:06.957Z,6.62
2019-02-14T04:25:34.897Z,9.23
2019-02-14T04:28:04.086Z,9.10
2019-02-14T04:30:32.221Z,13.40
2019-02-14T04:33:00.154Z,7.72
2019-02-14T04:35:28.229Z,6.70
2019-02-14T04:37:56.149Z,7.12
2019-02-14T04:40:24.474Z,9.05
2019-02-14T04:42:52.622Z,9.68
2019-02-14T04:45:20.694Z,8.73
2019-02-14T04:47:48.617Z,11.28
2019-02-14T04:50:16.573Z,9.05
2019-02-14T04:52:44.502Z,8.55
2019-02-14T04:55:12.529Z,7.92
2019-02-14T04:57:40.609Z,7.72
2019-02-14T05:00:09.366Z,7.20
2019-02-14T05:02:37.823Z,8.00
2019-02-14T05:05:06.243Z,6.00
2019-02-14T05:07:34.330Z,7.03
2019-02-14T05:10:03.139Z,8.38
2019-02-14T05:12:31.723Z,8.58
2019-02-14T05:14:59.635Z,8.98
2019-02-14T05:17:28.249Z,6.92
2019-02-14T05:19:57.213Z,8.63
2019-02-14T05:22:25.391Z,6.47
2019-02-14T05:24:54.549Z,11.55
2019-02-14T05:27:23.152Z,5.20
2019-02-14T05:29:51.562Z,9.43
2019-02-14T05:32:19.987Z,5.75
2019-02-14T05:34:48.265Z,6.90
2019-02-14T05:37:16.473Z,8.68
2019-02-14T05:39:45.141Z,7.00
2019-02-14T05:42:13.709Z,8.18
2019-02-14T05:44:42.231Z,7.78
2019-02-14T05:47:10.662Z,10.88
2019-02-14T05:49:38.906Z,10.68
2019-02-14T05:52:07.407Z,10.98
2019-02-14T05:54:36.117Z,6.40
2019-02-14T05:57:04.289Z,8.00
2019-02-14T05:59:32.481Z,8.25
2019-02-14T06:02:00.941Z,11.50
2019-02-14T06:04:30.167Z,10.63
2019-02-14T06:07:01.193Z,6.62
2019-02-14T06:09:28.870Z,7.90
2019-02-14T06:11:57.007Z,6.80
2019-02-14T06:14:24.928Z,6.92
2019-02-14T06:16:53.280Z,7.65
2019-02-14T06:19:21.712Z,7.40
2019-02-14T06:21:49.701Z,7.00
2019-02-14T06:24:17.966Z,9.38
2019-02-14T06:26:45.997Z,9.53
2019-02-14T06:29:13.949Z,11.25
2019-02-14T06:31:42.393Z,7.60
2019-02-14T06:34:10.329Z,11.45
2019-02-14T06:36:38.345Z,9.75
2019-02-14T06:39:06.374Z,7.25
2019-02-14T06:41:34.397Z,9.88
2019-02-14T06:44:02.453Z,7.25
2019-02-14T06:46:30.386Z,12.98
2019-02-14T06:48:58.383Z,11.03
2019-02-14T06:51:26.468Z,12.40
2019-02-14T06:53:54.400Z,14.43
2019-02-14T06:56:22.429Z,19.35
2019-02-14T06:58:50.782Z,24.43
2019-02-14T07:01:19.157Z,13.38
2019-02-14T07:03:47.103Z,11.68
2019-02-14T07:06:15.027Z,10.43
2019-02-14T07:08:42.968Z,11.20
2019-02-14T07:11:10.989Z,9.75
2019-02-14T07:13:38.917Z,10.95
2019-02-14T07:16:09.731Z,16.20
2019-02-14T07:18:37.963Z,12.93
2019-02-14T07:21:05.989Z,10.15
2019-02-14T07:23:34.530Z,14.65
2019-02-14T07:26:02.762Z,11.40
2019-02-14T07:28:31.057Z,12.90
2019-02-14T07:30:59.594Z,12.07
2019-02-14T07:33:27.780Z,13.70
2019-02-14T07:35:56.201Z,12.05
2019-02-14T07:38:24.660Z,11.25
2019-02-14T07:40:53.108Z,10.28
2019-02-14T07:43:21.749Z,10.28
2019-02-14T07:45:50.157Z,14.75
2019-02-14T07:48:19.089Z,19.75
2019-02-14T07:50:47.951Z,13.70
2019-02-14T07:53:15.878Z,12.47
2019-02-14T07:55:43.944Z,12.28
2019-02-14T07:58:11.925Z,14.60
2019-02-14T08:00:39.854Z,9.00
2019-02-14T08:03:08.012Z,8.35
2019-02-14T08:05:36.424Z,6.92
2019-02-14T08:08:04.446Z,5.55
2019-02-14T08:10:32.353Z,6.08
2019-02-14T08:13:00.373Z,7.28
2019-02-14T08:15:29.468Z,9.93
2019-02-14T08:17:57.377Z,10.28
2019-02-14T08:20:25.521Z,5.30
2019-02-14T08:22:53.443Z,6.72
2019-02-14T08:25:27.793Z,6.35
2019-02-14T08:27:56.171Z,5.78
2019-02-14T08:30:24.249Z,5.80
2019-02-14T08:32:52.277Z,4.25
2019-02-14T08:35:20.230Z,5.50
2019-02-14T08:37:48.374Z,5.30
2019-02-14T08:40:21.069Z,5.97
2019-02-14T08:42:54.438Z,5.97
2019-02-14T08:45:22.533Z,5.45
2019-02-14T08:47:50.610Z,5.87
2019-02-14T08:50:18.645Z,5.55
2019-02-14T08:52:46.988Z,5.45
2019-02-14T08:55:15.133Z,6.23
2019-02-14T08:57:43.311Z,5.67
2019-02-14T09:00:11.687Z,6.10
2019-02-14T09:02:39.922Z,4.87
2019-02-14T09:05:08.430Z,7.07
2019-02-14T09:07:36.441Z,5.00
2019-02-14T09:10:06.069Z,5.90
2019-02-14T09:12:35.553Z,7.33
2019-02-14T09:15:04.389Z,5.10
2019-02-14T09:17:32.510Z,7.40
2019-02-14T09:20:01.222Z,7.20
2019-02-14T09:22:29.236Z,4.83
2019-02-14T09:25:01.542Z,7.93
2019-02-14T09:27:29.453Z,8.50
2019-02-14T09:29:57.489Z,5.83
2019-02-14T09:32:25.722Z,8.87
2019-02-14T09:34:53.906Z,8.43
2019-02-14T09:37:26.167Z,7.27
2019-02-14T09:39:54.151Z,4.00
2019-02-14T09:42:22.608Z,5.40
2019-02-14T09:44:50.626Z,4.60
2019-02-14T09:47:18.647Z,5.43
2019-02-14T09:49:50.533Z,5.17
2019-02-14T09:52:17.597Z,3.80
2019-02-14T09:54:46.637Z,4.30
2019-02-14T09:57:14.833Z,4.60
2019-02-14T09:59:42.770Z,4.83
2019-02-14T10:02:15.268Z,3.47
2019-02-14T10:04:42.369Z,5.70
2019-02-14T10:07:10.386Z,9.00
2019-02-14T10:09:38.310Z,25.83
2019-02-14T10:12:06.328Z,23.80
2019-02-14T10:14:37.752Z,5.30
2019-02-14T10:17:05.663Z,3.87
2019-02-14T10:19:33.791Z,7.13
2019-02-14T10:22:01.709Z,4.40
2019-02-14T10:24:29.899Z,3.60
2019-02-14T10:27:01.839Z,2.70
2019-02-14T10:29:29.758Z,3.17
2019-02-14T10:31:57.692Z,3.50
2019-02-14T10:34:26.281Z,7.87
2019-02-14T10:36:54.813Z,3.90
2019-02-14T10:39:26.049Z,3.27
2019-02-14T10:41:54.552Z,3.27
2019-02-14T10:44:22.818Z,3.20
2019-02-14T10:46:51.259Z,4.57
2019-02-14T10:49:19.501Z,3.07
2019-02-14T10:51:53.202Z,3.83
2019-02-14T10:54:21.784Z,3.70
2019-02-14T10:56:50.312Z,3.93
2019-02-14T10:59:18.722Z,2.83
2019-02-14T11:01:47.176Z,4.07
2019-02-14T11:04:17.563Z,2.50
2019-02-14T11:06:46.383Z,3.47
2019-02-14T11:09:15.046Z,2.40
2019-02-14T11:11:43.465Z,3.43
2019-02-14T11:14:11.477Z,12.43
2019-02-14T11:16:44.429Z,4.40
2019-02-14T11:19:12.892Z,1.70
2019-02-14T11:21:41.169Z,3.40
2019-02-14T11:24:09.836Z,2.80
2019-02-14T11:26:38.700Z,4.57
2019-02-14T11:29:10.791Z,2.30
2019-02-14T11:31:39.314Z,3.10
2019-02-14T11:34:07.485Z,2.37
2019-02-14T11:36:35.915Z,4.23
2019-02-14T11:39:11.249Z,4.53
2019-02-14T11:41:40.468Z,3.17
2019-02-14T11:44:08.732Z,2.47
2019-02-14T11:46:36.932Z,2.23
2019-02-14T11:49:05.350Z,3.47
2019-02-14T11:51:35.261Z,2.83
2019-02-14T11:54:03.631Z,2.63
2019-02-14T11:56:32.061Z,3.20
2019-02-14T11:59:00.646Z,3.97
2019-02-14T12:01:29.042Z,3.33
2019-02-14T12:04:02.231Z,2.80
2019-02-14T12:06:30.942Z,4.33
2019-02-14T12:09:00.422Z,4.13
2019-02-14T12:11:28.929Z,7.43
2019-02-14T12:13:57.122Z,2.43
2019-02-14T12:16:28.566Z,2.30
2019-02-14T12:18:56.882Z,2.60
2019-02-14T12:21:25.134Z,2.60
2019-02-14T12:23:53.320Z,2.40
2019-02-14T12:26:21.502Z,2.60
2019-02-14T12:28:53.497Z,3.40
2019-02-14T12:31:21.662Z,2.97
2019-02-14T12:33:50.195Z,4.63
2019-02-14T12:36:18.229Z,3.10
2019-02-14T12:38:46.690Z,2.30
2019-02-14T12:41:19.062Z,4.30
2019-02-14T12:43:47.484Z,2.40
2019-02-14T12:46:15.649Z,2.57
2019-02-14T12:48:43.857Z,3.80
2019-02-14T12:51:11.818Z,4.13
2019-02-14T12:53:43.718Z,3.97
2019-02-14T12:56:11.894Z,2.10
2019-02-14T12:58:39.830Z,2.90
2019-02-14T13:01:08.147Z,4.83
2019-02-14T13:03:36.305Z,2.87
2019-02-14T13:06:04.804Z,4.30
2019-02-14T13:08:35.853Z,4.00
2019-02-14T13:11:03.977Z,3.80
2019-02-14T13:13:31.893Z,4.10
2019-02-14T13:15:59.821Z,2.90
2019-02-14T13:18:27.805Z,3.47
2019-02-14T13:21:00.302Z,3.00
2019-02-14T13:23:28.665Z,3.50
2019-02-14T13:25:56.712Z,6.67
2019-02-14T13:28:25.057Z,4.30
2019-02-14T13:30:53.097Z,4.60
2019-02-14T13:33:21.113Z,3.50
2019-02-14T13:35:50.751Z,3.23
2019-02-14T13:38:20.650Z,2.70
2019-02-14T13:40:48.744Z,2.53
2019-02-14T13:43:16.694Z,3.50
2019-02-14T13:45:44.746Z,2.57
2019-02-14T13:48:12.749Z,5.43
2019-02-14T13:50:42.257Z,2.77
2019-02-14T13:53:10.293Z,3.63
2019-02-14T13:55:38.357Z,5.50
2019-02-14T13:58:06.385Z,2.77
2019-02-14T14:00:34.509Z,1.80
2019-02-14T14:03:04.818Z,4.10
2019-02-14T14:05:34.254Z,5.93
2019-02-14T14:08:02.426Z,5.00
2019-02-14T14:10:30.633Z,4.47
2019-02-14T14:12:59.057Z,5.40
2019-02-14T14:15:27.421Z,3.37
2019-02-14T14:17:59.965Z,4.63
2019-02-14T14:20:28.151Z,2.77
2019-02-14T14:22:56.532Z,4.23
2019-02-14T14:25:24.512Z,2.03
2019-02-14T14:27:52.534Z,4.20
2019-02-14T14:30:20.557Z,7.20
2019-02-14T14:32:49.581Z,2.50
2019-02-14T14:35:17.603Z,4.40
2019-02-14T14:37:45.729Z,4.67
2019-02-14T14:40:13.874Z,2.70
2019-02-14T14:43:07.550Z,3.80
2019-02-14T14:46:00.821Z,4.37
2019-02-14T14:48:34.619Z,3.73
2019-02-14T14:51:02.749Z,3.73
2019-02-14T14:53:31.442Z,8.03
2019-02-14T14:55:59.367Z,3.10
2019-02-14T14:58:27.293Z,2.97
2019-02-14T15:00:55.325Z,2.23
2019-02-14T15:03:23.413Z,2.30
2019-02-14T15:05:56.858Z,3.30
2019-02-14T15:08:25.979Z,2.63
2019-02-14T15:10:56.601Z,3.10
2019-02-14T15:13:32.503Z,4.47
2019-02-14T15:16:04.753Z,4.00
2019-02-14T15:18:32.859Z,6.17
2019-02-14T15:21:01.195Z,4.90
2019-02-14T15:23:29.439Z,8.53
2019-02-14T15:25:57.560Z,13.60
2019-02-14T15:28:30.103Z,7.53
2019-02-14T15:30:58.137Z,8.10
2019-02-14T15:33:26.285Z,9.13
2019-02-14T15:35:54.709Z,6.77
2019-02-14T15:38:23.529Z,7.33
2019-02-14T15:40:57.005Z,5.23
2019-02-14T15:43:29.668Z,9.13
2019-02-14T15:45:57.877Z,5.70
2019-02-14T15:48:25.993Z,7.63
2019-02-14T15:50:56.844Z,10.87
2019-02-14T15:53:24.901Z,11.63
2019-02-14T15:55:52.852Z,7.90
2019-02-14T15:58:20.770Z,7.00
2019-02-14T16:00:49.994Z,6.37
2019-02-14T16:03:20.272Z,7.53
2019-02-14T16:05:48.517Z,16.73
2019-02-14T16:08:16.430Z,5.90
2019-02-14T16:10:44.554Z,9.40
2019-02-14T16:13:18.101Z,13.70
2019-02-14T16:15:46.272Z,8.33
2019-02-14T16:18:14.401Z,8.70
2019-02-14T16:20:44.231Z,6.17
2019-02-14T16:23:12.377Z,12.77
2019-02-14T16:25:42.344Z,13.30
2019-02-14T16:28:11.657Z,10.60
2019-02-14T16:30:40.332Z,14.57
2019-02-14T16:33:08.234Z,9.17
2019-02-14T16:35:36.686Z,7.40
2019-02-14T16:38:04.748Z,14.10
2019-02-14T16:40:38.649Z,8.40
2019-02-14T16:43:02.773Z,6.50
2019-02-14T16:45:30.950Z,5.70
2019-02-14T16:47:59.148Z,10.13
2019-02-14T16:50:27.228Z,10.77
2019-02-14T16:52:55.225Z,7.77
2019-02-14T16:55:23.191Z,10.30
2019-02-14T16:57:51.117Z,9.40
2019-02-14T17:00:19.404Z,10.50
2019-02-14T17:02:48.653Z,11.93
2019-02-14T17:05:16.676Z,9.20
2019-02-14T17:07:44.828Z,11.90
2019-02-14T17:10:12.885Z,9.97
2019-02-14T17:12:40.909Z,8.83
2019-02-14T17:15:09.197Z,8.43
2019-02-14T17:17:37.310Z,14.53
2019-02-14T17:20:07.281Z,9.80
2019-02-14T17:22:36.085Z,8.73
2019-02-14T17:25:04.813Z,7.63
2019-02-14T17:27:33.238Z,13.93
2019-02-14T17:30:01.746Z,10.90
2019-02-14T17:32:30.016Z,13.80
2019-02-14T17:34:57.935Z,9.00
2019-02-14T17:37:26.321Z,10.20
2019-02-14T17:39:54.984Z,12.20
2019-02-14T17:42:23.017Z,11.33
2019-02-14T17:44:51.725Z,12.33
2019-02-14T17:47:19.886Z,16.20
2019-02-14T17:49:48.441Z,13.67
2019-02-14T17:52:16.757Z,12.70
2019-02-14T17:54:44.957Z,12.00
2019-02-14T17:57:13.544Z,8.90
2019-02-14T17:59:42.052Z,14.93
2019-02-14T18:02:10.377Z,14.85
2019-02-14T18:04:38.304Z,9.13
2019-02-14T18:07:06.396Z,10.00
2019-02-14T18:09:34.377Z,9.07
2019-02-14T18:12:02.597Z,9.13
2019-02-14T18:14:30.906Z,10.47
2019-02-14T18:16:58.930Z,9.23
2019-02-14T18:19:27.133Z,12.10
2019-02-14T18:21:55.454Z,21.60
2019-02-14T18:24:23.635Z,12.90
2019-02-14T18:26:51.757Z,12.33
2019-02-14T18:29:19.697Z,14.63
2019-02-14T18:31:47.933Z,10.38
2019-02-14T18:34:15.889Z,9.53
2019-02-14T18:36:44.217Z,12.25
2019-02-14T18:39:12.293Z,10.13
2019-02-14T18:41:40.217Z,14.87
2019-02-14T18:44:08.816Z,8.90
2019-02-14T18:46:36.964Z,14.95
2019-02-14T18:49:05.040Z,8.78
2019-02-14T18:51:33.135Z,11.73
2019-02-14T18:54:01.185Z,13.62
2019-02-14T18:56:29.577Z,8.18
2019-02-14T18:58:57.653Z,11.08
2019-02-14T19:01:25.842Z,10.03
2019-02-14T19:03:53.798Z,11.38
2019-02-14T19:06:22.178Z,11.45
2019-02-14T19:08:50.123Z,11.97
2019-02-14T19:11:18.112Z,9.70
2019-02-14T19:13:46.301Z,7.80
2019-02-14T19:16:14.510Z,8.90
2019-02-14T19:18:42.431Z,8.98
2019-02-14T19:21:10.382Z,11.18
2019-02-14T19:23:38.386Z,7.78
2019-02-14T19:26:06.421Z,12.18
2019-02-14T19:28:34.376Z,12.40
2019-02-14T19:31:02.433Z,8.03
2019-02-14T19:33:30.478Z,10.50
2019-02-14T19:35:58.737Z,10.65
2019-02-14T19:38:27.238Z,10.25
2019-02-14T19:40:55.394Z,10.43
2019-02-14T19:43:23.364Z,8.33
2019-02-14T19:45:51.378Z,9.93
2019-02-14T19:48:19.406Z,12.30
2019-02-14T19:50:47.535Z,14.38
2019-02-14T19:53:15.468Z,13.50
2019-02-14T19:55:43.725Z,11.15
2019-02-14T19:58:11.768Z,10.85
2019-02-14T20:00:40.049Z,9.95
2019-02-14T20:03:08.124Z,15.60
2019-02-14T20:05:36.478Z,11.88
2019-02-14T20:08:04.729Z,12.85
2019-02-14T20:10:33.542Z,14.20
2019-02-14T20:13:01.740Z,11.93
2019-02-14T20:15:36.656Z,15.50
2019-02-14T20:18:00.525Z,19.30
2019-02-14T20:20:28.661Z,13.55
2019-02-14T20:22:56.714Z,14.18
2019-02-14T20:25:24.912Z,12.75
2019-02-14T20:27:53.149Z,14.18
2019-02-14T20:30:21.265Z,14.55
2019-02-14T20:32:49.289Z,14.55
2019-02-14T20:35:17.768Z,14.30
2019-02-14T20:37:46.032Z,14.43
2019-02-14T20:40:14.388Z,19.07
2019-02-14T20:42:42.483Z,13.38
2019-02-14T20:45:11.303Z,17.25
2019-02-14T20:47:39.914Z,12.93
2019-02-14T20:50:09.677Z,11.80
2019-02-14T20:52:37.848Z,11.03
2019-02-14T20:55:07.928Z,12.00
2019-02-14T20:57:36.133Z,12.03
2019-02-14T21:00:07.089Z,15.15
2019-02-14T21:02:35.457Z,16.95
2019-02-14T21:05:04.004Z,10.38
2019-02-14T21:07:32.020Z,10.60
2019-02-14T21:10:00.196Z,13.18
2019-02-14T21:12:28.511Z,13.13
2019-02-14T21:14:56.749Z,11.70
2019-02-14T21:17:24.768Z,12.40
2019-02-14T21:19:52.677Z,10.48
2019-02-14T21:22:20.746Z,10.58
2019-02-14T21:24:48.694Z,11.43
2019-02-14T21:27:17.148Z,13.40
2019-02-14T21:29:45.378Z,10.98
2019-02-14T21:32:13.507Z,12.55
2019-02-14T21:34:41.910Z,11.08
2019-02-14T21:37:09.938Z,11.75
2019-02-14T21:39:37.910Z,16.35
2019-02-14T21:42:19.913Z,13.65
2019-02-14T21:44:36.092Z,11.15
2019-02-14T21:47:04.201Z,13.05
2019-02-14T21:49:32.132Z,11.90
2019-02-14T21:52:00.245Z,10.45
2019-02-14T21:54:28.446Z,14.30
2019-02-14T21:56:56.369Z,12.75
2019-02-14T21:59:24.501Z,13.18
2019-02-14T22:01:52.617Z,13.40
2019-02-14T22:04:20.777Z,10.90
2019-02-14T22:06:49.125Z,13.25
2019-02-14T22:09:17.722Z,12.28
2019-02-14T22:11:45.848Z,11.90
2019-02-14T22:14:13.872Z,9.70
2019-02-14T22:16:41.828Z,10.80
2019-02-14T22:19:09.943Z,11.85
2019-02-14T22:21:37.889Z,14.63
2019-02-14T22:24:05.807Z,10.80
2019-02-14T22:26:33.858Z,11.40
2019-02-14T22:29:02.190Z,13.32
2019-02-14T22:31:30.325Z,11.40
2019-02-14T22:33:58.238Z,11.53
2019-02-14T22:36:26.841Z,9.63
2019-02-14T22:38:54.757Z,9.13
2019-02-14T22:41:22.959Z,13.55
2019-02-14T22:43:51.134Z,13.15
2019-02-14T22:46:19.377Z,14.50
2019-02-14T22:48:47.577Z,9.18
2019-02-14T22:51:16.125Z,11.30
2019-02-14T22:53:44.578Z,11.80
2019-02-14T22:56:13.380Z,12.90
2019-02-14T22:58:41.741Z,10.13
2019-02-14T23:01:10.597Z,12.30
2019-02-14T23:03:39.521Z,13.38
2019-02-14T23:06:07.869Z,16.77
2019-02-14T23:08:36.307Z,10.70
2019-02-14T23:11:04.958Z,16.27
2019-02-14T23:13:33.309Z,11.88
2019-02-14T23:16:03.165Z,11.40
2019-02-14T23:18:31.349Z,13.75
2019-02-14T23:20:59.261Z,14.60
2019-02-14T23:23:27.848Z,10.38
2019-02-14T23:25:56.610Z,10.60
2019-02-14T23:28:25.147Z,10.90
2019-02-14T23:30:53.458Z,11.30
2019-02-14T23:33:21.826Z,10.35
2019-02-14T23:35:49.774Z,9.60
2019-02-14T23:38:17.693Z,11.30
2019-02-14T23:40:45.689Z,13.43
2019-02-14T23:43:13.716Z,12.33
2019-02-14T23:45:41.738Z,11.68
2019-02-14T23:48:09.670Z,11.22
2019-02-14T23:50:37.734Z,8.95
2019-02-14T23:53:05.757Z,9.30
2019-02-14T23:55:33.706Z,8.73
2019-02-14T23:58:01.813Z,10.90
